createdAt,value
2023-02-19T00:01:34.591Z,22.92
2023-02-19T00:04:03.199Z,24.20
2023-02-19T00:06:31.794Z,23.86
2023-02-19T00:08:59.497Z,23.41
2023-02-19T00:11:29.673Z,23.14
2023-02-19T00:13:57.800Z,23.48
2023-02-19T00:16:26.656Z,23.41
2023-02-19T00:18:54.648Z,23.31
2023-02-19T00:21:22.187Z,23.52
2023-02-19T00:23:53.586Z,23.29
2023-02-19T00:26:21.402Z,23.91
2023-02-19T00:28:50.065Z,24.17
2023-02-19T00:31:25.477Z,23.97
2023-02-19T00:33:53.777Z,23.47
2023-02-19T00:36:21.256Z,23.75
2023-02-19T00:38:49.254Z,23.57
2023-02-19T00:41:19.900Z,23.41
2023-02-19T00:43:51.747Z,23.47
2023-02-19T00:46:27.158Z,23.30
2023-02-19T00:48:54.875Z,23.23
2023-02-19T00:51:23.459Z,23.60
2023-02-19T00:53:50.932Z,23.19
2023-02-19T00:56:18.353Z,23.26
2023-02-19T00:58:45.620Z,23.37
2023-02-19T01:01:12.916Z,23.76
2023-02-19T01:03:40.705Z,23.42
2023-02-19T01:06:09.258Z,23.85
2023-02-19T01:08:36.716Z,22.59
2023-02-19T01:11:04.926Z,23.80
2023-02-19T01:13:32.561Z,23.93
2023-02-19T01:16:07.232Z,22.42
2023-02-19T01:18:35.088Z,23.53
2023-02-19T01:21:09.884Z,23.35
2023-02-19T01:23:37.505Z,23.10
2023-02-19T01:26:09.155Z,24.00
2023-02-19T01:28:36.374Z,23.33
2023-02-19T01:31:04.638Z,23.13
2023-02-19T01:33:32.902Z,21.98
2023-02-19T01:36:00.548Z,23.58
2023-02-19T01:38:27.873Z,22.34
2023-02-19T01:40:56.346Z,23.81
2023-02-19T01:43:23.640Z,23.92
2023-02-19T01:45:50.896Z,23.46
2023-02-19T01:48:23.798Z,23.17
2023-02-19T01:50:55.972Z,23.01
2023-02-19T01:53:26.203Z,23.25
2023-02-19T01:55:55.497Z,23.03
2023-02-19T01:58:23.470Z,23.16
2023-02-19T02:00:51.914Z,22.89
2023-02-19T02:03:19.879Z,22.63
2023-02-19T02:05:56.700Z,23.39
2023-02-19T02:08:42.886Z,22.97
2023-02-19T02:11:10.419Z,23.67
2023-02-19T02:13:39.048Z,23.35
2023-02-19T02:16:15.797Z,23.29
2023-02-19T02:19:09.313Z,22.93
2023-02-19T02:21:51.883Z,23.05
2023-02-19T02:24:22.369Z,23.67
2023-02-19T02:26:52.787Z,23.24
2023-02-19T02:29:46.308Z,22.97
2023-02-19T02:32:20.106Z,23.46
2023-02-19T02:34:59.695Z,24.02
2023-02-19T02:37:28.628Z,23.23
2023-02-19T02:39:58.246Z,23.73
2023-02-19T02:42:28.522Z,24.00
2023-02-19T02:45:36.393Z,22.41
2023-02-19T02:48:28.913Z,22.76
2023-02-19T02:51:06.705Z,23.04
2023-02-19T02:54:02.005Z,23.03
2023-02-19T02:56:30.671Z,22.46
2023-02-19T02:58:59.321Z,23.32
2023-02-19T03:01:54.529Z,23.71
2023-02-19T03:04:26.494Z,22.58
2023-02-19T03:06:54.786Z,24.08
2023-02-19T03:09:30.658Z,24.07
2023-02-19T03:12:21.334Z,23.85
2023-02-19T03:15:09.050Z,23.48
2023-02-19T03:17:58.781Z,23.21
2023-02-19T03:20:27.109Z,22.68
2023-02-19T03:22:56.102Z,23.92
2023-02-19T03:25:47.162Z,23.10
2023-02-19T03:28:20.098Z,23.64
2023-02-19T03:30:50.914Z,23.42
2023-02-19T03:33:29.161Z,22.93
2023-02-19T03:35:58.602Z,23.11
2023-02-19T03:38:36.944Z,23.68
2023-02-19T03:41:13.652Z,22.75
2023-02-19T03:44:07.836Z,23.35
2023-02-19T03:46:47.958Z,23.19
2023-02-19T03:49:31.422Z,23.14
2023-02-19T03:52:13.465Z,22.02
2023-02-19T03:54:41.093Z,23.52
2023-02-19T03:57:26.608Z,22.69
2023-02-19T03:59:59.595Z,22.70
2023-02-19T04:02:33.991Z,22.57
2023-02-19T04:05:14.310Z,23.03
2023-02-19T04:07:45.276Z,22.94
2023-02-19T04:10:14.568Z,22.55
2023-02-19T04:12:48.574Z,23.22
2023-02-19T04:15:18.019Z,23.21
2023-02-19T04:17:53.564Z,23.63
2023-02-19T04:20:23.561Z,22.40
2023-02-19T04:22:51.457Z,23.39
2023-02-19T04:25:18.966Z,22.57
2023-02-19T04:27:46.282Z,22.83
2023-02-19T04:30:14.363Z,22.42
2023-02-19T04:32:41.820Z,22.97
2023-02-19T04:35:09.106Z,22.63
2023-02-19T04:37:36.410Z,22.14
2023-02-19T04:40:03.869Z,22.01
2023-02-19T04:42:31.060Z,22.08
2023-02-19T04:44:58.287Z,22.44
2023-02-19T04:47:25.778Z,22.79
2023-02-19T04:49:53.215Z,22.80
2023-02-19T04:52:20.442Z,22.91
2023-02-19T04:54:47.785Z,22.86
2023-02-19T04:57:15.083Z,23.03
2023-02-19T04:59:42.285Z,23.19
2023-02-19T05:02:09.498Z,23.12
2023-02-19T05:04:36.709Z,22.98
2023-02-19T05:07:03.999Z,22.22
2023-02-19T05:09:31.217Z,22.78
2023-02-19T05:11:58.394Z,22.15
2023-02-19T05:14:27.595Z,22.62
2023-02-19T05:16:54.905Z,22.90
2023-02-19T05:19:22.051Z,23.03
2023-02-19T05:21:49.206Z,22.33
2023-02-19T05:24:16.423Z,22.63
2023-02-19T05:26:45.445Z,22.41
2023-02-19T05:29:12.786Z,21.37
2023-02-19T05:31:40.163Z,22.20
2023-02-19T05:34:07.544Z,22.48
2023-02-19T05:36:34.700Z,22.81
2023-02-19T05:39:01.981Z,23.09
2023-02-19T05:41:30.265Z,23.12
2023-02-19T05:43:57.792Z,22.67
2023-02-19T05:46:26.133Z,23.12
2023-02-19T05:48:53.776Z,21.96
2023-02-19T05:51:22.226Z,22.32
2023-02-19T05:53:50.659Z,22.11
2023-02-19T05:56:26.784Z,22.50
2023-02-19T05:58:54.773Z,21.92
2023-02-19T06:01:22.790Z,22.08
2023-02-19T06:03:50.093Z,22.45
2023-02-19T06:06:18.273Z,21.78
2023-02-19T06:08:46.026Z,22.59
2023-02-19T06:11:13.256Z,22.55
2023-02-19T06:13:40.489Z,21.91
2023-02-19T06:16:07.921Z,22.06
2023-02-19T06:18:35.320Z,21.89
2023-02-19T06:21:06.511Z,22.55
2023-02-19T06:23:33.717Z,22.37
2023-02-19T06:26:15.885Z,22.21
2023-02-19T06:28:43.505Z,22.30
2023-02-19T06:31:11.900Z,22.55
2023-02-19T06:33:40.701Z,21.66
2023-02-19T06:36:12.101Z,22.47
2023-02-19T06:38:39.789Z,22.14
2023-02-19T06:41:08.345Z,22.49
2023-02-19T06:43:35.936Z,22.74
2023-02-19T06:46:04.438Z,22.17
2023-02-19T06:48:32.160Z,22.27
2023-02-19T06:50:59.415Z,22.24
2023-02-19T06:53:26.687Z,22.48
2023-02-19T06:55:56.707Z,22.62
2023-02-19T06:58:24.464Z,21.64
2023-02-19T07:00:51.828Z,22.45
2023-02-19T07:03:19.172Z,21.89
2023-02-19T07:05:46.416Z,22.38
2023-02-19T07:08:13.817Z,22.58
2023-02-19T07:10:41.033Z,21.92
2023-02-19T07:13:08.324Z,22.39
2023-02-19T07:15:35.761Z,21.69
2023-02-19T07:18:05.264Z,22.80
2023-02-19T07:20:32.468Z,22.48
2023-02-19T07:22:59.716Z,22.25
2023-02-19T07:25:26.969Z,22.80
2023-02-19T07:27:54.132Z,22.77
2023-02-19T07:30:21.428Z,22.33
2023-02-19T07:32:48.620Z,21.83
2023-02-19T07:35:15.906Z,21.89
2023-02-19T07:37:43.126Z,21.92
2023-02-19T07:40:10.504Z,22.29
2023-02-19T07:42:37.747Z,22.21
2023-02-19T07:45:06.516Z,22.21
2023-02-19T07:47:33.701Z,22.55
2023-02-19T07:50:00.873Z,21.53
2023-02-19T07:52:28.420Z,22.24
2023-02-19T07:54:55.681Z,21.85
2023-02-19T07:57:22.873Z,21.16
2023-02-19T07:59:51.116Z,21.74
2023-02-19T08:02:37.833Z,22.46
2023-02-19T08:05:06.427Z,21.69
2023-02-19T08:07:36.675Z,22.59
2023-02-19T08:10:23.036Z,22.19
2023-02-19T08:13:15.787Z,21.66
2023-02-19T08:15:43.203Z,22.29
2023-02-19T08:18:16.668Z,21.74
2023-02-19T08:20:44.222Z,21.73
2023-02-19T08:23:12.219Z,21.83
2023-02-19T08:25:39.793Z,22.59
2023-02-19T08:28:08.298Z,21.67
2023-02-19T08:30:36.233Z,21.82
2023-02-19T08:33:04.343Z,21.67
2023-02-19T08:35:31.546Z,22.25
2023-02-19T08:37:59.026Z,21.34
2023-02-19T08:40:26.354Z,21.46
2023-02-19T08:42:53.819Z,21.90
2023-02-19T08:45:21.015Z,22.21
2023-02-19T08:47:48.242Z,21.32
2023-02-19T08:50:15.554Z,22.09
2023-02-19T08:52:42.746Z,21.67
2023-02-19T08:55:09.951Z,22.04
2023-02-19T08:57:40.500Z,22.06
2023-02-19T09:00:08.978Z,22.12
2023-02-19T09:02:36.231Z,21.76
2023-02-19T09:05:03.846Z,22.00
2023-02-19T09:07:31.143Z,22.11
2023-02-19T09:09:59.185Z,21.29
2023-02-19T09:12:26.782Z,21.26
2023-02-19T09:14:55.449Z,21.49
2023-02-19T09:17:22.630Z,21.54
2023-02-19T09:19:50.901Z,21.47
2023-02-19T09:22:18.174Z,20.62
2023-02-19T09:24:45.461Z,20.64
2023-02-19T09:27:16.764Z,21.32
2023-02-19T09:29:44.075Z,22.11
2023-02-19T09:32:11.874Z,22.13
2023-02-19T09:34:39.481Z,21.66
2023-02-19T09:37:07.171Z,21.54
2023-02-19T09:39:34.921Z,21.15
2023-02-19T09:42:12.590Z,21.42
2023-02-19T09:44:41.599Z,21.55
2023-02-19T09:47:15.625Z,21.91
2023-02-19T09:49:49.976Z,21.70
2023-02-19T09:52:35.551Z,21.60
2023-02-19T09:55:05.034Z,21.35
2023-02-19T09:57:33.373Z,21.43
2023-02-19T10:00:03.837Z,21.25
2023-02-19T10:02:32.435Z,22.11
2023-02-19T10:04:59.930Z,22.34
2023-02-19T10:07:42.022Z,21.82
2023-02-19T10:10:15.341Z,21.79
2023-02-19T10:12:47.063Z,21.68
2023-02-19T10:15:32.284Z,21.95
2023-02-19T10:17:59.641Z,21.15
2023-02-19T10:20:28.056Z,22.03
2023-02-19T10:23:03.028Z,21.64
2023-02-19T10:25:31.003Z,21.45
2023-02-19T10:27:59.516Z,21.52
2023-02-19T10:30:34.768Z,21.60
2023-02-19T10:33:05.198Z,21.47
2023-02-19T10:35:35.954Z,21.35
2023-02-19T10:38:06.740Z,22.09
2023-02-19T10:40:34.121Z,21.28
2023-02-19T10:43:02.991Z,20.90
2023-02-19T10:45:34.703Z,22.37
2023-02-19T10:48:02.985Z,22.63
2023-02-19T10:50:32.109Z,22.29
2023-02-19T10:53:01.000Z,22.22
2023-02-19T10:55:29.811Z,23.40
2023-02-19T10:57:57.755Z,22.62
2023-02-19T11:00:27.511Z,22.99
2023-02-19T11:03:15.250Z,21.86
2023-02-19T11:05:56.163Z,23.27
2023-02-19T11:08:24.424Z,21.75
2023-02-19T11:10:51.687Z,23.15
2023-02-19T11:13:38.295Z,22.14
2023-02-19T11:16:05.640Z,22.35
2023-02-19T11:18:33.252Z,21.85
2023-02-19T11:21:07.235Z,22.48
2023-02-19T11:23:36.157Z,22.12
2023-02-19T11:26:05.814Z,23.30
2023-02-19T11:28:35.106Z,22.66
2023-02-19T11:31:17.731Z,22.41
2023-02-19T11:33:50.852Z,21.92
2023-02-19T11:36:37.029Z,22.36
2023-02-19T11:39:10.387Z,22.13
2023-02-19T11:41:49.575Z,21.72
2023-02-19T11:44:16.863Z,20.97
2023-02-19T11:46:56.115Z,21.62
2023-02-19T11:49:39.686Z,23.34
2023-02-19T11:52:19.134Z,21.95
2023-02-19T11:54:48.800Z,22.04
2023-02-19T11:57:36.223Z,22.81
2023-02-19T12:00:22.190Z,22.27
2023-02-19T12:03:08.056Z,22.43
2023-02-19T12:05:41.339Z,23.06
2023-02-19T12:08:08.612Z,22.39
2023-02-19T12:11:02.344Z,22.75
2023-02-19T12:13:40.948Z,22.74
2023-02-19T12:16:08.269Z,22.16
2023-02-19T12:18:35.425Z,22.30
2023-02-19T12:21:20.612Z,21.51
2023-02-19T12:23:53.810Z,22.30
2023-02-19T12:26:21.156Z,22.95
2023-02-19T12:29:06.922Z,22.63
2023-02-19T12:31:40.347Z,21.14
2023-02-19T12:34:27.902Z,22.99
2023-02-19T12:37:13.467Z,23.18
2023-02-19T12:39:52.914Z,22.70
2023-02-19T12:42:25.957Z,22.86
2023-02-19T12:44:56.282Z,22.90
2023-02-19T12:47:25.966Z,21.80
2023-02-19T12:50:04.036Z,22.66
2023-02-19T12:52:34.590Z,22.71
2023-02-19T12:55:07.305Z,22.16
2023-02-19T12:57:37.303Z,22.37
2023-02-19T13:00:13.236Z,22.46
2023-02-19T13:02:50.835Z,23.31
2023-02-19T13:05:29.976Z,23.42
2023-02-19T13:08:04.810Z,22.96
2023-02-19T13:10:34.817Z,23.08
2023-02-19T13:13:06.882Z,22.69
2023-02-19T13:15:41.610Z,22.07
2023-02-19T13:18:19.770Z,21.20
2023-02-19T13:20:48.879Z,22.12
2023-02-19T13:23:43.217Z,22.09
2023-02-19T13:26:19.661Z,22.71
2023-02-19T13:28:46.922Z,22.13
2023-02-19T13:31:26.071Z,21.99
2023-02-19T13:34:03.513Z,22.56
2023-02-19T13:36:31.108Z,22.30
2023-02-19T13:38:59.497Z,22.14
2023-02-19T13:41:28.599Z,23.51
2023-02-19T13:44:03.908Z,22.50
2023-02-19T13:46:36.924Z,22.37
2023-02-19T13:49:22.885Z,22.66
2023-02-19T13:51:51.533Z,23.15
2023-02-19T13:54:33.355Z,22.47
2023-02-19T13:57:19.292Z,23.22
2023-02-19T13:59:48.290Z,21.94
2023-02-19T14:02:21.377Z,22.17
2023-02-19T14:05:17.839Z,22.03
2023-02-19T14:07:51.714Z,22.60
2023-02-19T14:10:37.783Z,22.65
2023-02-19T14:13:07.869Z,22.07
2023-02-19T14:15:40.676Z,22.64
2023-02-19T14:18:26.715Z,22.64
2023-02-19T14:21:05.892Z,22.78
2023-02-19T14:23:33.174Z,21.53
2023-02-19T14:26:01.284Z,22.49
2023-02-19T14:28:45.396Z,22.07
2023-02-19T14:31:19.092Z,22.33
2023-02-19T14:33:51.581Z,22.54
2023-02-19T14:36:34.187Z,22.78
2023-02-19T14:39:23.095Z,21.93
2023-02-19T14:41:56.471Z,21.33
2023-02-19T14:44:25.838Z,21.92
2023-02-19T14:46:56.170Z,21.85
2023-02-19T14:49:34.303Z,21.97
2023-02-19T14:52:04.329Z,21.60
2023-02-19T14:54:31.514Z,21.16
2023-02-19T14:56:59.558Z,21.80
2023-02-19T14:59:27.970Z,21.55
2023-02-19T15:02:15.332Z,21.20
2023-02-19T15:04:42.696Z,22.35
2023-02-19T15:07:13.480Z,20.82
2023-02-19T15:09:42.454Z,22.75
2023-02-19T15:12:25.846Z,22.35
2023-02-19T15:14:59.247Z,22.44
2023-02-19T15:17:28.285Z,20.92
2023-02-19T15:19:56.774Z,22.33
2023-02-19T15:22:26.142Z,21.56
2023-02-19T15:24:53.419Z,21.26
2023-02-19T15:27:22.739Z,22.55
2023-02-19T15:29:53.305Z,22.94
2023-02-19T15:32:22.800Z,22.32
2023-02-19T15:34:54.489Z,22.00
2023-02-19T15:37:22.219Z,21.72
2023-02-19T15:39:51.131Z,21.43
2023-02-19T15:42:20.275Z,21.92
2023-02-19T15:44:50.812Z,21.68
2023-02-19T15:47:36.502Z,21.50
2023-02-19T15:50:13.609Z,20.86
2023-02-19T15:53:04.130Z,20.50
2023-02-19T15:55:31.457Z,20.90
2023-02-19T15:58:05.594Z,20.61
2023-02-19T16:00:37.612Z,21.03
2023-02-19T16:03:05.701Z,20.55
2023-02-19T16:05:39.373Z,21.64
2023-02-19T16:08:12.651Z,20.86
2023-02-19T16:10:39.889Z,21.48
2023-02-19T16:13:08.546Z,20.62
2023-02-19T16:15:36.216Z,20.58
2023-02-19T16:18:03.497Z,21.62
2023-02-19T16:20:32.162Z,21.26
2023-02-19T16:23:02.004Z,20.74
2023-02-19T16:25:42.022Z,21.35
2023-02-19T16:28:23.022Z,20.46
2023-02-19T16:30:57.214Z,20.42
2023-02-19T16:33:38.913Z,21.35
2023-02-19T16:36:18.273Z,21.09
2023-02-19T16:39:04.241Z,20.43
2023-02-19T16:41:31.609Z,21.65
2023-02-19T16:43:58.862Z,22.26
2023-02-19T16:46:26.112Z,20.69
2023-02-19T16:48:54.266Z,21.62
2023-02-19T16:51:26.664Z,20.71
2023-02-19T16:53:53.977Z,21.05
2023-02-19T16:56:23.139Z,20.96
2023-02-19T16:58:50.666Z,20.51
2023-02-19T17:01:18.152Z,21.66
2023-02-19T17:03:47.195Z,21.22
2023-02-19T17:06:14.896Z,21.73
2023-02-19T17:08:43.589Z,22.09
2023-02-19T17:11:12.768Z,22.47
2023-02-19T17:13:41.038Z,21.68
2023-02-19T17:16:10.810Z,20.65
2023-02-19T17:18:38.174Z,21.65
2023-02-19T17:21:16.034Z,20.81
2023-02-19T17:23:43.813Z,20.56
2023-02-19T17:26:15.518Z,21.38
2023-02-19T17:28:42.851Z,22.25
2023-02-19T17:31:11.273Z,21.49
2023-02-19T17:33:39.036Z,21.78
2023-02-19T17:36:06.701Z,22.22
2023-02-19T17:38:34.031Z,22.12
2023-02-19T17:41:01.277Z,22.20
2023-02-19T17:43:28.599Z,21.09
2023-02-19T17:45:55.836Z,21.47
2023-02-19T17:48:23.171Z,21.76
2023-02-19T17:50:52.251Z,21.14
2023-02-19T17:53:19.614Z,21.00
2023-02-19T17:55:46.841Z,21.83
2023-02-19T17:58:14.375Z,22.20
2023-02-19T18:00:41.566Z,20.95
2023-02-19T18:03:09.017Z,21.84
2023-02-19T18:05:36.215Z,21.81
2023-02-19T18:08:03.568Z,22.08
2023-02-19T18:10:30.799Z,20.95
2023-02-19T18:12:58.373Z,21.48
2023-02-19T18:15:26.933Z,21.61
2023-02-19T18:17:54.983Z,22.49
2023-02-19T18:20:26.645Z,21.48
2023-02-19T18:22:55.072Z,21.33
2023-02-19T18:25:23.723Z,20.75
2023-02-19T18:27:51.095Z,22.29
2023-02-19T18:30:19.288Z,21.67
2023-02-19T18:32:49.643Z,21.73
2023-02-19T18:35:17.727Z,22.25
2023-02-19T18:37:45.166Z,21.85
2023-02-19T18:40:12.640Z,21.54
2023-02-19T18:42:40.661Z,21.70
2023-02-19T18:45:08.112Z,21.49
2023-02-19T18:47:35.292Z,21.60
2023-02-19T18:50:02.744Z,21.48
2023-02-19T18:52:29.994Z,20.82
2023-02-19T18:55:00.662Z,21.15
2023-02-19T18:57:27.998Z,21.63
2023-02-19T18:59:55.216Z,21.78
2023-02-19T19:02:22.612Z,20.46
2023-02-19T19:04:51.123Z,22.30
2023-02-19T19:07:19.540Z,21.05
2023-02-19T19:09:46.829Z,22.55
2023-02-19T19:12:14.670Z,22.32
2023-02-19T19:14:42.275Z,21.76
2023-02-19T19:17:10.817Z,21.73
2023-02-19T19:19:38.056Z,21.51
2023-02-19T19:22:05.506Z,22.29
2023-02-19T19:24:32.761Z,22.16
2023-02-19T19:26:59.985Z,19.99
2023-02-19T19:29:27.479Z,21.42
2023-02-19T19:31:54.837Z,21.68
2023-02-19T19:34:22.025Z,22.26
2023-02-19T19:36:49.555Z,21.55
2023-02-19T19:39:16.741Z,21.92
2023-02-19T19:41:43.987Z,21.82
2023-02-19T19:44:12.201Z,21.93
2023-02-19T19:46:43.553Z,21.68
2023-02-19T19:49:10.778Z,21.44
2023-02-19T19:51:38.106Z,21.21
2023-02-19T19:54:05.549Z,22.13
2023-02-19T19:56:32.801Z,22.42
2023-02-19T19:59:00.080Z,21.41
2023-02-19T20:01:27.276Z,21.75
2023-02-19T20:03:54.647Z,22.58
2023-02-19T20:06:29.876Z,22.70
2023-02-19T20:08:57.766Z,22.21
2023-02-19T20:11:24.945Z,21.61
2023-02-19T20:13:52.245Z,23.15
2023-02-19T20:16:26.206Z,21.65
2023-02-19T20:18:53.680Z,22.66
2023-02-19T20:21:20.930Z,21.39
2023-02-19T20:23:48.145Z,22.05
2023-02-19T20:26:21.453Z,21.87
2023-02-19T20:28:48.815Z,21.11
2023-02-19T20:31:16.269Z,22.27
2023-02-19T20:33:43.589Z,21.26
2023-02-19T20:36:10.816Z,21.28
2023-02-19T20:38:38.148Z,22.37
2023-02-19T20:41:06.414Z,22.17
2023-02-19T20:43:33.712Z,22.76
2023-02-19T20:46:01.322Z,22.07
2023-02-19T20:48:28.656Z,22.85
2023-02-19T20:51:01.828Z,21.91
2023-02-19T20:53:29.859Z,22.14
2023-02-19T20:55:57.494Z,22.37
2023-02-19T20:58:24.744Z,22.47
2023-02-19T21:00:53.658Z,22.56
2023-02-19T21:03:21.068Z,22.60
2023-02-19T21:05:48.370Z,21.31
2023-02-19T21:08:17.399Z,22.07
2023-02-19T21:10:45.927Z,21.99
2023-02-19T21:13:13.858Z,21.62
2023-02-19T21:15:41.267Z,21.41
2023-02-19T21:18:08.697Z,21.42
2023-02-19T21:20:36.011Z,22.99
2023-02-19T21:23:03.529Z,22.40
2023-02-19T21:25:33.210Z,22.09
2023-02-19T21:28:00.537Z,22.49
2023-02-19T21:30:27.887Z,22.47
2023-02-19T21:32:55.205Z,21.76
2023-02-19T21:35:23.387Z,22.39
2023-02-19T21:37:50.972Z,22.42
2023-02-19T21:40:18.312Z,21.02
2023-02-19T21:42:45.614Z,22.39
2023-02-19T21:45:13.086Z,22.45
2023-02-19T21:47:40.323Z,22.96
2023-02-19T21:50:07.770Z,21.87
2023-02-19T21:52:35.234Z,23.08
2023-02-19T21:55:02.510Z,21.12
2023-02-19T21:57:29.731Z,22.82
2023-02-19T21:59:57.159Z,22.53
2023-02-19T22:02:24.490Z,22.70
2023-02-19T22:04:53.717Z,23.60
2023-02-19T22:07:21.886Z,22.04
2023-02-19T22:09:49.658Z,20.85
2023-02-19T22:12:17.178Z,22.51
2023-02-19T22:14:44.531Z,21.67
2023-02-19T22:17:11.960Z,22.52
2023-02-19T22:19:39.275Z,22.02
2023-02-19T22:22:06.699Z,22.94
2023-02-19T22:24:34.257Z,22.61
2023-02-19T22:27:01.537Z,22.61
2023-02-19T22:29:28.814Z,22.43
2023-02-19T22:31:56.211Z,23.03
2023-02-19T22:34:23.744Z,22.49
2023-02-19T22:36:51.017Z,22.80
2023-02-19T22:39:22.639Z,21.99
2023-02-19T22:41:49.863Z,22.63
2023-02-19T22:44:17.201Z,21.53
2023-02-19T22:46:49.266Z,21.88
2023-02-19T22:49:17.077Z,22.82
2023-02-19T22:52:10.600Z,22.55
2023-02-19T22:54:38.153Z,22.95
2023-02-19T22:57:05.338Z,21.85
2023-02-19T22:59:32.577Z,22.18
2023-02-19T23:01:59.808Z,21.82
2023-02-19T23:04:27.129Z,22.32
2023-02-19T23:06:54.376Z,22.35
2023-02-19T23:09:26.751Z,21.56
2023-02-19T23:12:00.496Z,21.66
2023-02-19T23:14:27.755Z,22.34
2023-02-19T23:16:55.000Z,22.54
2023-02-19T23:19:22.393Z,21.45
2023-02-19T23:21:49.908Z,22.06
2023-02-19T23:24:17.300Z,22.80
2023-02-19T23:26:49.063Z,22.31
2023-02-19T23:29:17.445Z,23.03
2023-02-19T23:31:45.074Z,22.81
2023-02-19T23:34:12.718Z,22.29
2023-02-19T23:36:43.751Z,22.15
2023-02-19T23:39:11.770Z,22.87
2023-02-19T23:41:39.490Z,21.84
2023-02-19T23:44:06.723Z,22.47
2023-02-19T23:46:33.996Z,22.37
2023-02-19T23:49:01.333Z,22.43
2023-02-19T23:51:28.513Z,20.45
2023-02-19T23:53:55.691Z,21.69
2023-02-19T23:56:27.331Z,22.98
2023-02-19T23:58:54.616Z,22.67
